PAEN/ENA METAR and TAF weather

Enter ICAO airport designator
Station Type Date Time Source
PAEN METAR 2022/07/01 01:53 UTC NOAA

PAEN 010153Z 22008KT 10SM BKN060 OVC080 16/11 A3017 RMK AO2 SLP217 T01560111


Station Type Date Time Source
PAEN Decoded METAR 2022/07/01 01:53 UTC NOAA

KENAI MUNICIPAL AIRPORT, AK, United States (PAEN) 60-35N 151-14W 25M
Jun 30, 2022 - 09:53 PM EDT / 2022.07.01 0153 UTC
Wind: from the SW (220 degrees) at 9 MPH (8 KT):0
Visibility: 10 mile(s):0
Sky conditions: overcast
Temperature: 60.1 F (15.6 C)
Dew Point: 52.0 F (11.1 C)
Relative Humidity: 74%
Pressure (altimeter): 30.17 in. Hg (1021 hPa)
ob: PAEN 010153Z 22008KT 10SM BKN060 OVC080 16/11 A3017 RMK AO2 SLP217 T01560111
cycle: 2

Station Type Date Time Source
PAEN TAF 2022/06/30 18:27 UTC NOAA

TAF PAEN 301724Z 3018/0118 22010KT P6SM SKC
FM302200 23014KT P6SM SKC
FM010600 21008KT P6SM FEW100

Example: see airport list